createdAt,value
2022-11-04T07:52:37.265Z,15.45
2022-11-04T07:57:43.311Z,14.88
2022-11-04T08:02:47.577Z,14.52
2022-11-04T08:07:57.745Z,14.98
2022-11-04T08:13:01.226Z,14.85
2022-11-04T08:18:05.295Z,13.57
2022-11-04T08:23:12.419Z,14.10
2022-11-04T08:28:20.840Z,13.65
2022-11-04T08:33:25.103Z,14.48
2022-11-04T08:38:34.347Z,13.57
2022-11-04T08:43:52.859Z,14.48
2022-11-04T08:48:56.926Z,12.63
2022-11-04T08:54:20.044Z,12.90
2022-11-04T08:59:25.091Z,13.82
2022-11-04T09:04:36.244Z,12.40
2022-11-04T09:09:41.592Z,12.38
2022-11-04T09:14:45.479Z,12.52
2022-11-04T09:19:49.380Z,11.87
2022-11-04T09:24:54.508Z,11.15
2022-11-04T09:29:58.009Z,11.38
2022-11-04T09:35:02.798Z,15.95
2022-11-04T09:40:13.503Z,12.00
2022-11-04T09:45:22.178Z,11.23
2022-11-04T09:51:39.785Z,10.43
2022-11-04T10:08:24.072Z,10.15
2022-11-04T10:13:40.859Z,10.32
2022-11-04T10:18:57.562Z,10.10
2022-11-04T10:24:09.072Z,10.00
2022-11-04T10:29:40.296Z,9.73
2022-11-04T10:34:47.549Z,10.35
2022-11-04T10:39:51.310Z,9.30
2022-11-04T10:44:57.153Z,9.30
2022-11-04T10:50:28.959Z,9.75
2022-11-04T10:55:42.243Z,8.50
2022-11-04T11:00:47.530Z,10.10
2022-11-04T11:05:52.354Z,9.13
2022-11-04T11:10:59.186Z,9.35
2022-11-04T11:16:11.855Z,8.35
2022-11-04T11:21:22.643Z,9.55
2022-11-04T11:26:32.512Z,8.80
2022-11-04T11:31:39.876Z,8.90
2022-11-04T11:36:47.228Z,8.93
2022-11-04T11:41:59.533Z,8.20
2022-11-04T11:47:08.589Z,9.60
2022-11-04T11:52:31.769Z,9.77
2022-11-04T11:57:45.203Z,8.45
2022-11-04T12:02:57.313Z,9.65
2022-11-04T12:13:40.681Z,8.88
2022-11-04T12:19:03.086Z,10.63
2022-11-04T12:24:21.663Z,9.50
2022-11-04T12:29:42.141Z,9.15
2022-11-04T12:35:04.014Z,10.30
2022-11-04T12:45:44.408Z,8.82
2022-11-04T12:51:07.952Z,9.32
2022-11-04T12:56:13.392Z,9.15
2022-11-04T13:01:23.876Z,9.23
2022-11-04T13:06:34.697Z,10.60
2022-11-04T13:11:46.545Z,10.18
2022-11-04T13:16:54.489Z,9.90
2022-11-04T13:22:04.699Z,9.77
2022-11-04T13:27:20.146Z,9.52
2022-11-04T13:32:31.045Z,9.13
2022-11-04T13:37:40.870Z,10.57
2022-11-04T13:43:26.880Z,10.52
2022-11-04T13:48:33.973Z,10.13
2022-11-04T13:53:51.847Z,10.98
2022-11-04T13:58:59.828Z,10.98
2022-11-04T14:04:21.489Z,10.23
2022-11-04T14:09:36.506Z,10.75
2022-11-04T14:14:41.787Z,11.25
2022-11-04T14:19:59.237Z,10.93
2022-11-04T14:25:20.700Z,12.57
2022-11-04T14:31:03.202Z,11.98
2022-11-04T14:36:27.463Z,12.70
2022-11-04T14:41:50.736Z,12.55
2022-11-04T14:47:08.960Z,14.95
2022-11-04T14:52:36.902Z,14.15
2022-11-04T14:57:48.000Z,13.50
2022-11-04T15:03:01.665Z,12.80
2022-11-04T15:08:30.486Z,12.48
2022-11-04T15:13:41.023Z,13.45
2022-11-04T15:18:45.095Z,13.70
2022-11-04T15:23:51.216Z,13.65
2022-11-04T15:28:58.538Z,14.07
2022-11-04T15:34:10.274Z,15.43
2022-11-04T15:39:23.041Z,14.05
2022-11-04T15:44:31.447Z,14.35
2022-11-04T15:49:35.933Z,15.07
2022-11-04T15:54:41.847Z,14.13
2022-11-04T15:59:56.441Z,14.48
2022-11-04T16:05:09.292Z,14.68
2022-11-04T16:10:26.072Z,13.93
2022-11-04T16:15:41.086Z,15.20
2022-11-04T16:20:47.512Z,13.77
2022-11-04T16:26:01.147Z,13.02
2022-11-04T16:31:09.597Z,14.32
2022-11-04T16:36:23.746Z,18.35
2022-11-04T16:41:30.020Z,15.60
2022-11-04T16:46:35.558Z,15.73
2022-11-04T16:51:39.183Z,16.92
2022-11-04T16:56:42.806Z,15.02
2022-11-04T17:01:48.445Z,14.70
2022-11-04T17:06:52.139Z,15.57
2022-11-04T17:11:56.389Z,14.68
2022-11-04T17:17:05.215Z,13.68
2022-11-04T17:22:10.033Z,13.85
2022-11-04T17:27:16.452Z,14.15
2022-11-04T17:32:21.411Z,15.13
2022-11-04T17:37:25.374Z,15.35
2022-11-04T17:42:46.681Z,14.93
2022-11-04T17:47:51.787Z,14.02
2022-11-04T17:52:55.412Z,14.88
2022-11-04T17:57:59.477Z,15.15
2022-11-04T18:03:13.871Z,14.55
2022-11-04T18:08:17.804Z,14.73
2022-11-04T18:13:21.812Z,15.82
2022-11-04T18:18:27.210Z,14.48
2022-11-04T18:23:31.483Z,13.73
2022-11-04T18:28:35.065Z,14.97
2022-11-04T18:33:43.538Z,15.82
2022-11-04T18:38:54.535Z,16.08
2022-11-04T18:44:00.104Z,15.40
2022-11-04T18:49:31.080Z,16.70
2022-11-04T18:54:36.352Z,16.55
2022-11-04T18:59:40.387Z,17.25
2022-11-04T19:10:03.601Z,17.92
2022-11-04T19:15:08.922Z,17.38
2022-11-04T19:25:34.083Z,17.85
2022-11-04T19:30:39.411Z,16.08
2022-11-04T19:35:48.074Z,17.95
2022-11-04T19:40:52.656Z,15.85
2022-11-04T19:46:02.919Z,15.68
2022-11-04T19:51:13.133Z,16.48
2022-11-04T19:56:18.142Z,16.55
2022-11-04T20:01:44.324Z,18.25
2022-11-04T20:07:12.947Z,18.83
2022-11-04T20:12:34.591Z,18.35
2022-11-04T20:17:38.405Z,18.20
2022-11-04T20:22:43.471Z,17.75
2022-11-04T20:32:51.382Z,17.05
2022-11-04T20:37:56.633Z,18.50
2022-11-04T20:43:04.731Z,17.92
2022-11-04T20:48:15.937Z,17.33
2022-11-04T20:53:22.487Z,18.45
2022-11-04T20:58:28.937Z,18.60
2022-11-04T21:03:33.758Z,17.60
2022-11-04T21:08:39.455Z,17.23
2022-11-04T21:13:43.244Z,17.70
2022-11-04T21:18:49.199Z,18.63
2022-11-04T21:23:59.102Z,17.42
2022-11-04T21:29:06.175Z,18.85
2022-11-04T21:34:10.967Z,18.02
2022-11-04T21:39:34.296Z,18.05
2022-11-04T21:44:38.182Z,18.58
2022-11-04T21:49:42.002Z,18.10
2022-11-04T22:00:07.247Z,19.65
2022-11-04T22:05:11.976Z,19.88
2022-11-04T22:29:09.842Z,18.92
2022-11-04T22:34:13.560Z,18.43
2022-11-04T22:39:18.523Z,18.10
2022-11-04T22:44:22.110Z,19.70
2022-11-04T22:49:25.697Z,17.92
2022-11-04T22:54:30.610Z,17.58
